Flight Track Log - Related Links

Times and Time Zones

All times are in EDT time to prevent confusion due to time zone crossing. See the UAL1259 flight status page for this flight to view local times or setup timezone preferences in your user account.

Time Position Orientation Groundspeed Altitude Reporting Facility
EDT Latitude Longitude Course Direction KTS MPH feet Rate Location/Type
Tue 12:49:29 PM 29.9764 -95.2983 97° East 165 190 800  Level Houston Center
Tue 12:50:12 PM 29.9686 -95.2583 103° East 213 245 2,400 2,500 Climbing Houston Center
Tue 12:51:05 PM 29.9608 -95.2019 99° East 213 245 4,800 3,078 Climbing Houston Center
Tue 12:52:00 PM 29.9227 -94.8997 102° East  Level FlightAware Approximate
Tue 12:52:07 PM 29.9683 -95.1106 85° East 276 318 8,300  Level Houston Center
Tue 12:53:00 PM 29.9073 -94.7542 95° East  Level FlightAware Approximate
Tue 12:53:08 PM 29.9539 -95.0119 100° East 303 349 11,700  Level Houston Center
Tue 12:54:00 PM 29.8942 -94.6081 97° East  Level FlightAware Approximate
Tue 12:54:10 PM 29.9403 -94.9044 98° East 326 375 14,900  Level Houston Center
Tue 12:55:12 PM 29.9247 -94.7892 99° East 351 404 18,000 2,903 Climbing Houston Center
Tue 12:56:14 PM 29.9092 -94.6689 98° East 371 427 20,900 2,855 Climbing Houston Center
Tue 12:57:16 PM 29.8881 -94.5153 99° East 396 456 23,900 2,177 Climbing Houston Center
Tue 12:58:18 PM 29.8719 -94.3839 98° East 407 468 25,400 1,839 Climbing Houston Center
Tue 12:59:20 PM 29.8592 -94.2425 96° East 435 501 27,700 2,049 Climbing Houston Center
Tue 01:00:21 PM 29.8550 -94.0953 92° East 447 514 29,600 1,805 Climbing Houston Center
Tue 01:01:23 PM 29.8633 -93.9478 86° East 465 535 31,400 2,032 Climbing Houston Center
Tue 01:02:25 PM 29.8789 -93.8017 83° East 464 534 33,800 2,177 Climbing Houston Center
Tue 01:03:27 PM 29.8933 -93.6631 83° East 448 516 35,900 1,548 Climbing Houston Center
Tue 01:04:29 PM 29.9100 -93.5025 83° East 429 494 37,000 537 Climbing Houston Center
Tue 01:05:30 PM 29.9239 -93.3647 83° East 434 499 37,000  Level Houston Center
Tue 01:06:32 PM 29.9372 -93.2267 84° East 435 501 37,000 -48 Level Houston Center
Tue 01:07:34 PM 29.9511 -93.0911 83° East 431 496 36,900  Descending Houston Center
Tue 01:08:36 PM 29.9656 -92.9553 83° East 429 494 37,000 48 Climbing Houston Center
Tue 01:09:38 PM 29.9792 -92.7914 84° East 430 495 37,000 48 Level Houston Center
Tue 01:10:40 PM 29.9894 -92.6539 85° East 435 501 37,100 585 Climbing Houston Center
Tue 01:11:41 PM 30.0181 -92.5100 77° East 462 532 38,200 878 Climbing Houston Center
Tue 01:12:43 PM 30.0583 -92.3692 72° East 465 535 38,900 339 Climbing Houston Center
Tue 01:13:45 PM 30.0978 -92.2306 72° East 461 531 38,900  Level Houston Center
Tue 01:14:47 PM 30.1356 -92.0919 72° East 455 524 38,900 48 Level Houston Center
Tue 01:15:49 PM 30.1831 -91.9247 72° East 458 527 39,000 48 Climbing Houston Center
Tue 01:16:51 PM 30.2175 -91.7989 72° East 458 527 39,000  Level Houston Center
Tue 01:17:53 PM 30.2628 -91.6389 72° East 459 528 39,000  Level Houston Center
Tue 01:18:54 PM 30.3028 -91.4964 72° East 465 535 39,000  Level Houston Center
Tue 01:19:56 PM 30.3403 -91.3550 73° East 462 532 39,000  Level Houston Center
Tue 01:20:58 PM 30.3808 -91.2094 72° East 472 543 39,000  Level Houston Center
Tue 01:22:00 PM 30.4194 -91.0661 73° East 469 540 39,000 -48 Level Houston Center
Tue 01:23:02 PM 30.4589 -90.9194 73° East 474 545 38,900 -48 Descending Houston Center
Tue 01:24:04 PM 30.5072 -90.7436 72° East 478 550 38,900  Level Houston Center
Tue 01:25:06 PM 30.5467 -90.5950 73° East 482 555 38,900 48 Level Houston Center
Tue 01:26:08 PM 30.5864 -90.4464 73° East 482 555 39,000  Climbing Houston Center
Tue 01:27:09 PM 30.6261 -90.2947 73° East 487 560 38,900  Descending Houston Center
Tue 01:28:11 PM 30.6742 -90.1453 69° East 492 566 39,000  Climbing Houston Center
Tue 01:29:13 PM 30.7364 -89.9978 64° Northeast 502 578 38,900  Descending Houston Center
Tue 01:30:15 PM 30.8006 -89.8500 63° Northeast 507 583 39,000 48 Climbing Houston Center
Tue 01:31:17 PM 30.8622 -89.7014 64° Northeast 508 585 39,000  Level Houston Center
Tue 01:32:18 PM 30.9239 -89.5533 64° Northeast 506 582 39,000 -49 Level Houston Center
Tue 01:33:20 PM 30.9992 -89.3761 64° Northeast 506 582 38,900 -48 Descending Houston Center
Tue 01:34:22 PM 31.0592 -89.2269 65° Northeast 507 583 38,900 48 Level Houston Center
Tue 01:35:24 PM 31.1203 -89.0792 64° Northeast 505 581 39,000 48 Climbing Houston Center
Tue 01:36:26 PM 31.1853 -88.9250 64° Northeast 510 587 39,000  Level Houston Center
Tue 01:37:28 PM 31.2472 -88.7731 64° Northeast 514 592 39,000  Level Houston Center
Tue 01:38:30 PM 31.3100 -88.6200 64° Northeast 519 597 39,000  Level Houston Center
Tue 01:39:31 PM 31.3728 -88.4689 64° Northeast 514 592 39,000  Level Houston Center
Tue 01:40:19 PM 31.4253 -88.3483 63° Northeast 503 579 39,000  Level Atlanta Center
Tue 01:41:19 PM 31.4869 -88.1931 65° Northeast 509 586 39,000  Level Atlanta Center
Tue 01:42:19 PM 31.5503 -88.0400 64° Northeast 514 592 39,000  Level Atlanta Center
Tue 01:43:19 PM 31.6136 -87.8844 64° Northeast 519 597 39,000  Level Atlanta Center
Tue 01:44:19 PM 31.6747 -87.7283 65° Northeast 519 597 39,000  Level Atlanta Center
Tue 01:45:19 PM 31.7378 -87.5722 65° Northeast 519 597 39,000  Level Atlanta Center
Tue 01:46:19 PM 31.7986 -87.4183 65° Northeast 519 597 39,000  Level Atlanta Center
Tue 01:48:19 PM 31.9128 -87.1142 66° East 509 586 39,000  Level Atlanta Center
Tue 01:49:19 PM 31.9731 -86.9619 65° Northeast 509 586 39,000  Level Atlanta Center
Tue 01:50:19 PM 32.0306 -86.8144 65° Northeast 504 580 39,000  Level Atlanta Center
Tue 01:51:19 PM 32.1008 -86.6525 63° Northeast 499 574 39,000  Level Atlanta Center
Tue 01:52:19 PM 32.1561 -86.5044 66° East 494 568 39,000  Level Atlanta Center
Tue 01:53:19 PM 32.2047 -86.3733 66° East 494 568 39,000  Level Atlanta Center
Tue 01:54:19 PM 32.2825 -86.2181 59° Northeast 494 568 39,000  Level Atlanta Center
Tue 01:55:19 PM 32.3600 -86.0872 55° Northeast 488 562 39,000  Level Atlanta Center
Tue 01:56:19 PM 32.4372 -85.9586 55° Northeast 488 562 39,000  Level Atlanta Center
Tue 01:57:19 PM 32.5206 -85.8197 55° Northeast 488 562 39,000  Level Atlanta Center
Tue 01:58:19 PM 32.5956 -85.6908 55° Northeast 493 567 39,000  Level Atlanta Center
Tue 01:59:19 PM 32.6703 -85.5614 56° Northeast 488 562 39,000  Level Atlanta Center
Tue 02:00:19 PM 32.7492 -85.4294 55° Northeast 488 562 39,000  Level Atlanta Center
Tue 02:01:19 PM 32.8236 -85.2944 57° Northeast 488 562 39,000  Level Atlanta Center
Tue 02:02:19 PM 32.9042 -85.1647 53° Northeast 488 562 39,000  Level Atlanta Center
Tue 02:03:19 PM 32.9719 -85.0517 54° Northeast 483 556 39,000  Level Atlanta Center
Tue 02:04:19 PM 33.0481 -84.9161 56° Northeast 483 556 39,000  Level Atlanta Center
Tue 02:05:19 PM 33.1303 -84.7731 56° Northeast 488 562 39,000  Level Atlanta Center
Tue 02:06:19 PM 33.2064 -84.6397 56° Northeast 488 562 39,000  Level Atlanta Center
Tue 02:07:19 PM 33.2800 -84.5108 56° Northeast 488 562 39,000  Level Atlanta Center
Tue 02:08:19 PM 33.3575 -84.3769 55° Northeast 480 552 39,000  Level Atlanta Center
Tue 02:09:19 PM 33.4331 -84.2431 56° Northeast 480 552 39,000  Level Atlanta Center
Tue 02:10:19 PM 33.5083 -84.1111 56° Northeast 485 558 39,000  Level Atlanta Center
Tue 02:11:19 PM 33.5833 -83.9764 56° Northeast 490 564 39,000  Level Atlanta Center
Tue 02:12:19 PM 33.6564 -83.8467 56° Northeast 484 557 39,000  Level Atlanta Center
Tue 02:13:19 PM 33.7311 -83.7142 56° Northeast 484 557 39,000  Level Atlanta Center
Tue 02:14:19 PM 33.8039 -83.5839 56° Northeast 479 551 39,000  Level Atlanta Center
Tue 02:15:19 PM 33.8764 -83.4533 56° Northeast 474 545 39,000  Level Atlanta Center
Tue 02:16:19 PM 33.9486 -83.3225 56° Northeast 469 540 39,000 -200 Level Atlanta Center
Tue 02:17:19 PM 34.0208 -83.1867 57° Northeast 469 540 38,600 -700 Descending Atlanta Center
Tue 02:18:19 PM 34.0867 -83.0581 58° Northeast 457 526 37,600 -800 Descending Atlanta Center
Tue 02:19:19 PM 34.1586 -82.9292 56° Northeast 457 526 37,000 -300 Descending Atlanta Center
Tue 02:20:19 PM 34.2119 -82.8131 61° Northeast 457 526 37,000  Level Atlanta Center
Tue 02:21:19 PM 34.2814 -82.6864 56° Northeast 457 526 37,000  Level Atlanta Center
Tue 02:22:19 PM 34.3569 -82.5492 56° Northeast 452 520 37,000  Level Atlanta Center
Tue 02:23:19 PM 34.4242 -82.4169 58° Northeast 452 520 37,000 50 Level Atlanta Center
Tue 02:24:19 PM 34.4872 -82.2872 59° Northeast 452 520 37,100  Climbing Atlanta Center
Tue 02:25:19 PM 34.5542 -82.1597 57° Northeast 452 520 37,000 -50 Descending Atlanta Center
Tue 02:26:19 PM 34.6189 -82.0297 59° Northeast 452 520 37,000  Level Atlanta Center
Tue 02:27:19 PM 34.6775 -81.9222 56° Northeast 445 512 37,000  Level Atlanta Center
Tue 02:28:19 PM 34.7442 -81.7914 58° Northeast 438 504 37,000  Level Atlanta Center
Tue 02:29:19 PM 34.8086 -81.6633 58° Northeast 438 504 37,000  Level Atlanta Center
Tue 02:30:19 PM 34.8708 -81.5400 58° Northeast 433 498 37,000  Level Atlanta Center
Tue 02:31:19 PM 34.9328 -81.4114 60° Northeast 433 498 37,000  Level Atlanta Center
Tue 02:32:19 PM 35.0008 -81.2750 59° Northeast 433 498 37,000  Level Atlanta Center
Tue 02:33:19 PM 35.0644 -81.1458 59° Northeast 433 498 37,000  Level Atlanta Center
Tue 02:34:19 PM 35.1283 -81.0192 58° Northeast 439 505 37,000  Level Atlanta Center
Tue 02:35:19 PM 35.1917 -80.8875 59° Northeast 434 499 37,000  Level Atlanta Center
Tue 02:36:19 PM 35.2553 -80.7628 58° Northeast 439 505 37,000  Level Atlanta Center
Tue 02:37:19 PM 35.3164 -80.6331 60° Northeast 439 505 37,000  Level Atlanta Center
Tue 02:38:19 PM 35.3814 -80.5031 58° Northeast 432 497 37,000  Level Atlanta Center
Tue 02:40:13 PM 35.4906 -80.2783 59° Northeast 429 494 37,000  Level Washington Center
Tue 02:41:14 PM 35.5497 -80.1489 61° Northeast 424 488 37,000  Level Washington Center
Tue 02:42:15 PM 35.6214 -80.0150 57° Northeast 424 488 37,000  Level Washington Center
Tue 02:43:15 PM 35.6825 -79.8881 59° Northeast 424 488 37,000  Level Washington Center
Tue 02:44:13 PM 35.7433 -79.7608 59° Northeast 424 488 37,000  Level Washington Center
Tue 02:45:13 PM 35.8064 -79.6283 60° Northeast 437 503 37,000  Level Washington Center
Tue 02:46:13 PM 35.8703 -79.5214 54° Northeast 425 489 37,000  Level Washington Center
Tue 02:47:14 PM 35.9517 -79.3972 51° Northeast 427 491 37,000  Level Washington Center
Tue 02:48:15 PM 36.0219 -79.2800 53° Northeast 427 491 37,000  Level Washington Center
Tue 02:49:13 PM 36.0967 -79.1625 52° Northeast 432 497 37,000  Level Washington Center
Tue 02:50:14 PM 36.1711 -79.0425 52° Northeast 432 497 37,000  Level Washington Center
Tue 02:51:15 PM 36.2433 -78.9244 53° Northeast 432 497 37,000  Level Washington Center
Tue 02:52:13 PM 36.3175 -78.8067 52° Northeast 432 497 37,000  Level Washington Center
Tue 02:53:13 PM 36.3914 -78.6883 52° Northeast 432 497 37,000  Level Washington Center
Tue 02:54:13 PM 36.4633 -78.5672 54° Northeast 432 497 37,000  Level Washington Center
Tue 02:55:14 PM 36.5372 -78.4511 52° Northeast 432 497 37,000  Level Washington Center
Tue 02:56:13 PM 36.6086 -78.3347 53° Northeast 432 497 37,000  Level Washington Center
Tue 02:57:13 PM 36.6653 -78.2383 54° Northeast 432 497 37,000  Level Washington Center
Tue 02:58:14 PM 36.7411 -78.1036 55° Northeast 432 497 37,000  Level Washington Center
Tue 02:59:15 PM 36.8208 -77.9739 52° Northeast 432 497 37,000  Level Washington Center
Tue 03:00:15 PM 36.8919 -77.8539 53° Northeast 432 497 37,000  Level Washington Center
Tue 03:01:13 PM 36.9653 -77.7314 53° Northeast 432 497 37,000  Level Washington Center
Tue 03:02:14 PM 37.0383 -77.6083 53° Northeast 432 497 37,000  Level Washington Center
Tue 03:03:14 PM 37.1111 -77.4878 53° Northeast 432 497 37,000  Level Washington Center
Tue 03:04:15 PM 37.1819 -77.3644 54° Northeast 432 497 37,000  Level Washington Center
Tue 03:05:15 PM 37.2547 -77.2408 53° Northeast 432 497 37,000  Level Washington Center
Tue 03:06:13 PM 37.3250 -77.1275 52° Northeast 439 505 37,000  Level Washington Center
Tue 03:07:13 PM 37.4367 -77.0331 34° Northeast 434 499 37,000  Level Washington Center
Tue 03:08:14 PM 37.5397 -76.9642 28° Northeast 439 505 37,000  Level Washington Center
Tue 03:09:14 PM 37.6406 -76.8847 32° Northeast 445 512 37,000  Level Washington Center
Tue 03:10:15 PM 37.7458 -76.8078 30° Northeast 445 512 37,000  Level Washington Center
Tue 03:11:13 PM 37.8531 -76.7281 30° Northeast 445 512 37,000  Level Washington Center
Tue 03:12:14 PM 37.9581 -76.6478 31° Northeast 445 512 37,000  Level Washington Center
Tue 03:13:14 PM 38.0650 -76.5675 31° Northeast 451 519 37,000  Level Washington Center
Tue 03:14:15 PM 38.1697 -76.4897 30° Northeast 451 519 37,000  Level Washington Center
Tue 03:15:15 PM 38.2747 -76.4064 32° Northeast 446 513 37,000  Level Washington Center
Tue 03:16:13 PM 38.3711 -76.3200 35° Northeast 439 505 37,000  Level Washington Center
Tue 03:17:13 PM 38.4717 -76.2308 35° Northeast 433 498 37,000 -446 Level Washington Center
Tue 03:18:14 PM 38.5828 -76.1281 36° Northeast 441 507 36,100 -1,388 Descending Washington Center
Tue 03:19:14 PM 38.6811 -76.0439 34° Northeast 434 499 34,200 -2,430 Descending Washington Center
Tue 03:20:15 PM 38.7772 -75.9486 38° Northeast 434 499 31,200 -2,777 Descending Washington Center
Tue 03:21:15 PM 38.8733 -75.8556 37° Northeast 434 499 28,600 -2,136 Descending Washington Center
Tue 03:22:13 PM 38.9694 -75.7678 35° Northeast 434 499 27,000 -857 Descending Washington Center
Tue 03:23:14 PM 39.0614 -75.6797 37° Northeast 424 488 26,900 -541 Descending Washington Center
Tue 03:24:15 PM 39.1550 -75.5889 37° Northeast 424 488 25,900 -1,438 Descending Washington Center
Tue 03:25:15 PM 39.2467 -75.5031 36° Northeast 419 482 24,000 -966 Descending Washington Center
Tue 03:26:13 PM 39.3383 -75.4253 33° Northeast 407 468 24,000 -1,059 Level Washington Center
Tue 03:27:14 PM 39.4319 -75.3444 34° Northeast 401 461 21,900 -2,016 Descending Washington Center
Tue 03:28:15 PM 39.5194 -75.2633 36° Northeast 395 455 19,900 -958 Descending Washington Center
Tue 03:29:13 PM 39.6025 -75.1850 36° Northeast 382 440 20,000 50 Climbing Washington Center
Tue 03:30:14 PM 39.6875 -75.1033 36° Northeast 377 434 20,000 -298 Level Washington Center
Tue 03:31:14 PM 39.7747 -75.0300 33° Northeast 377 434 19,400 -1,300 Descending Washington Center
Tue 03:32:14 PM 39.8578 -74.9592 33° Northeast 367 422 17,400 -1,934 Descending Washington Center
Tue 03:33:15 PM 39.9303 -74.8881 37° Northeast 367 422 15,500 -2,186 Descending Washington Center
Tue 03:34:12 PM 40.0000 -74.7833 49° Northeast 344 396 13,100 -2,270 Descending New York TRACON
Tue 03:35:06 PM 40.0500 -74.7167 46° Northeast 333 383 11,300 -1,579 Descending New York TRACON
Tue 03:36:06 PM 40.1167 -74.6167 49° Northeast 321 369 10,100 -571 Descending New York TRACON
Tue 03:37:12 PM 40.1833 -74.5167 49° Northeast 325 374 10,100  Level New York TRACON
Tue 03:38:06 PM 40.2333 -74.4500 45° Northeast 326 375 10,100 -150 Level New York TRACON
Tue 03:39:12 PM 40.3167 -74.3667 37° Northeast 309 356 9,800 -714 Descending New York TRACON
Tue 03:40:12 PM 40.3667 -74.2833 52° Northeast 289 333 8,600 -1,250 Descending New York TRACON
Tue 03:41:12 PM 40.4167 -74.2167 45° Northeast 273 314 7,300 -1,158 Descending New York TRACON
Tue 03:42:06 PM 40.4667 -74.1500 45° Northeast 262 302 6,400 -1,368 Descending New York TRACON
Tue 03:43:06 PM 40.5167 -74.0833 45° Northeast 266 306 4,700 -1,150 Descending New York TRACON
Tue 03:44:06 PM 40.5833 -74.0500 21° North 263 303 4,100 -300 Descending New York TRACON
Tue 03:45:06 PM 40.6667 -74.0500 360° North 259 298 4,100 -450 Level New York TRACON
Tue 03:46:06 PM 40.7333 -74.0167 21° North 253 291 3,200 -550 Descending New York TRACON
Tue 03:47:06 PM 40.7833 -73.9833 27° Northeast 247 284 3,000 -48 Descending New York TRACON
Tue 03:48:12 PM 40.8500 -73.9333 30° Northeast 247 284 3,100 91 Climbing New York TRACON

Login

Don't have an account? Register now (free) for customized features, flight alerts, and more!